sensor_id;sensor_type;location;lat;lon;timestamp;P1;durP1;ratioP1;P2;durP2;ratioP2
18947;SDS011;9607;51.600;7.558;2023-09-08T00:00:28;5.15;;;4.65;;
18947;SDS011;9607;51.600;7.558;2023-09-08T00:02:55;4.68;;;4.07;;
18947;SDS011;9607;51.600;7.558;2023-09-08T00:05:22;5.05;;;4.30;;
18947;SDS011;9607;51.600;7.558;2023-09-08T00:07:51;5.30;;;4.05;;
18947;SDS011;9607;51.600;7.558;2023-09-08T00:10:18;4.22;;;3.83;;
18947;SDS011;9607;51.600;7.558;2023-09-08T00:12:46;4.18;;;3.88;;
18947;SDS011;9607;51.600;7.558;2023-09-08T00:15:13;3.50;;;3.20;;
18947;SDS011;9607;51.600;7.558;2023-09-08T00:17:40;4.03;;;3.67;;
18947;SDS011;9607;51.600;7.558;2023-09-08T00:20:07;6.38;;;4.88;;
18947;SDS011;9607;51.600;7.558;2023-09-08T00:22:35;7.45;;;6.30;;
18947;SDS011;9607;51.600;7.558;2023-09-08T00:25:02;9.30;;;7.78;;
18947;SDS011;9607;51.600;7.558;2023-09-08T00:27:30;10.63;;;7.95;;
18947;SDS011;9607;51.600;7.558;2023-09-08T00:29:58;10.80;;;7.78;;
18947;SDS011;9607;51.600;7.558;2023-09-08T00:32:27;9.25;;;7.20;;
18947;SDS011;9607;51.600;7.558;2023-09-08T00:34:54;12.23;;;7.70;;
18947;SDS011;9607;51.600;7.558;2023-09-08T00:37:20;8.35;;;7.32;;
18947;SDS011;9607;51.600;7.558;2023-09-08T00:39:47;8.23;;;7.43;;
18947;SDS011;9607;51.600;7.558;2023-09-08T00:42:14;9.77;;;8.10;;
18947;SDS011;9607;51.600;7.558;2023-09-08T00:44:41;12.13;;;8.35;;
18947;SDS011;9607;51.600;7.558;2023-09-08T00:47:11;9.75;;;8.32;;
18947;SDS011;9607;51.600;7.558;2023-09-08T00:49:38;11.18;;;8.50;;
18947;SDS011;9607;51.600;7.558;2023-09-08T00:52:05;9.63;;;8.05;;
18947;SDS011;9607;51.600;7.558;2023-09-08T00:54:32;8.75;;;7.78;;
18947;SDS011;9607;51.600;7.558;2023-09-08T00:56:59;7.63;;;6.93;;
18947;SDS011;9607;51.600;7.558;2023-09-08T00:59:29;6.32;;;5.72;;
18947;SDS011;9607;51.600;7.558;2023-09-08T01:01:58;6.55;;;5.70;;
18947;SDS011;9607;51.600;7.558;2023-09-08T01:04:26;5.13;;;4.63;;
18947;SDS011;9607;51.600;7.558;2023-09-08T01:06:53;5.32;;;4.82;;
18947;SDS011;9607;51.600;7.558;2023-09-08T01:09:21;4.55;;;4.15;;
18947;SDS011;9607;51.600;7.558;2023-09-08T01:11:49;4.30;;;3.90;;
18947;SDS011;9607;51.600;7.558;2023-09-08T01:14:20;4.50;;;4.07;;
18947;SDS011;9607;51.600;7.558;2023-09-08T01:16:47;4.75;;;4.25;;
18947;SDS011;9607;51.600;7.558;2023-09-08T01:19:15;4.32;;;3.92;;
18947;SDS011;9607;51.600;7.558;2023-09-08T01:21:57;4.00;;;3.70;;
18947;SDS011;9607;51.600;7.558;2023-09-08T01:27:29;3.80;;;3.50;;
18947;SDS011;9607;51.600;7.558;2023-09-08T01:29:59;4.05;;;3.75;;
18947;SDS011;9607;51.600;7.558;2023-09-08T01:32:28;3.75;;;3.45;;
18947;SDS011;9607;51.600;7.558;2023-09-08T01:34:55;4.25;;;3.83;;
18947;SDS011;9607;51.600;7.558;2023-09-08T01:37:23;4.22;;;3.83;;
18947;SDS011;9607;51.600;7.558;2023-09-08T01:39:52;3.92;;;3.63;;
18947;SDS011;9607;51.600;7.558;2023-09-08T01:42:20;5.05;;;3.42;;
18947;SDS011;9607;51.600;7.558;2023-09-08T01:44:47;4.05;;;3.58;;
18947;SDS011;9607;51.600;7.558;2023-09-08T01:47:14;3.65;;;3.35;;
18947;SDS011;9607;51.600;7.558;2023-09-08T01:49:40;4.15;;;3.85;;
18947;SDS011;9607;51.600;7.558;2023-09-08T01:52:07;3.90;;;3.60;;
18947;SDS011;9607;51.600;7.558;2023-09-08T01:54:34;4.70;;;4.30;;
18947;SDS011;9607;51.600;7.558;2023-09-08T01:57:01;4.55;;;4.15;;
18947;SDS011;9607;51.600;7.558;2023-09-08T01:59:30;4.57;;;4.18;;
18947;SDS011;9607;51.600;7.558;2023-09-08T02:01:56;7.28;;;5.45;;
18947;SDS011;9607;51.600;7.558;2023-09-08T02:04:23;6.60;;;5.47;;
18947;SDS011;9607;51.600;7.558;2023-09-08T02:06:50;5.65;;;5.15;;
18947;SDS011;9607;51.600;7.558;2023-09-08T02:09:17;4.03;;;3.72;;
18947;SDS011;9607;51.600;7.558;2023-09-08T02:11:44;3.97;;;3.67;;
18947;SDS011;9607;51.600;7.558;2023-09-08T02:14:10;4.70;;;4.25;;
18947;SDS011;9607;51.600;7.558;2023-09-08T02:16:39;4.95;;;4.45;;
18947;SDS011;9607;51.600;7.558;2023-09-08T02:19:05;5.85;;;5.35;;
18947;SDS011;9607;51.600;7.558;2023-09-08T02:21:32;5.05;;;4.55;;
18947;SDS011;9607;51.600;7.558;2023-09-08T02:23:59;5.05;;;4.65;;
18947;SDS011;9607;51.600;7.558;2023-09-08T02:26:26;4.60;;;4.20;;
18947;SDS011;9607;51.600;7.558;2023-09-08T02:28:54;4.72;;;4.32;;
18947;SDS011;9607;51.600;7.558;2023-09-08T02:31:21;4.45;;;4.05;;
18947;SDS011;9607;51.600;7.558;2023-09-08T02:33:49;4.82;;;4.10;;
18947;SDS011;9607;51.600;7.558;2023-09-08T02:36:16;4.00;;;3.58;;
18947;SDS011;9607;51.600;7.558;2023-09-08T02:38:43;4.53;;;4.13;;
18947;SDS011;9607;51.600;7.558;2023-09-08T02:41:10;5.72;;;5.22;;
18947;SDS011;9607;51.600;7.558;2023-09-08T02:43:37;8.35;;;5.65;;
18947;SDS011;9607;51.600;7.558;2023-09-08T02:46:03;6.70;;;6.03;;
18947;SDS011;9607;51.600;7.558;2023-09-08T02:48:30;5.82;;;5.22;;
18947;SDS011;9607;51.600;7.558;2023-09-08T02:50:58;6.15;;;4.78;;
18947;SDS011;9607;51.600;7.558;2023-09-08T02:53:25;5.00;;;4.50;;
18947;SDS011;9607;51.600;7.558;2023-09-08T02:55:53;5.60;;;5.10;;
18947;SDS011;9607;51.600;7.558;2023-09-08T02:58:19;4.93;;;4.53;;
18947;SDS011;9607;51.600;7.558;2023-09-08T03:00:47;4.93;;;4.53;;
18947;SDS011;9607;51.600;7.558;2023-09-08T03:03:15;5.20;;;4.70;;
18947;SDS011;9607;51.600;7.558;2023-09-08T03:05:42;5.55;;;5.05;;
18947;SDS011;9607;51.600;7.558;2023-09-08T03:08:10;5.72;;;5.22;;
18947;SDS011;9607;51.600;7.558;2023-09-08T03:10:37;5.60;;;5.10;;
18947;SDS011;9607;51.600;7.558;2023-09-08T03:13:04;5.30;;;4.88;;
18947;SDS011;9607;51.600;7.558;2023-09-08T03:15:31;4.75;;;4.35;;
18947;SDS011;9607;51.600;7.558;2023-09-08T03:17:58;5.05;;;4.47;;
18947;SDS011;9607;51.600;7.558;2023-09-08T03:20:28;5.63;;;5.13;;
18947;SDS011;9607;51.600;7.558;2023-09-08T03:22:56;4.57;;;4.18;;
18947;SDS011;9607;51.600;7.558;2023-09-08T03:25:25;4.60;;;4.20;;
18947;SDS011;9607;51.600;7.558;2023-09-08T03:27:53;4.70;;;4.30;;
18947;SDS011;9607;51.600;7.558;2023-09-08T03:30:20;4.97;;;4.47;;
18947;SDS011;9607;51.600;7.558;2023-09-08T03:32:47;5.00;;;4.50;;
18947;SDS011;9607;51.600;7.558;2023-09-08T03:35:14;5.68;;;5.18;;
18947;SDS011;9607;51.600;7.558;2023-09-08T03:37:40;5.25;;;4.78;;
18947;SDS011;9607;51.600;7.558;2023-09-08T03:40:08;5.45;;;4.95;;
18947;SDS011;9607;51.600;7.558;2023-09-08T03:42:36;6.53;;;5.93;;
18947;SDS011;9607;51.600;7.558;2023-09-08T03:45:04;6.32;;;5.47;;
18947;SDS011;9607;51.600;7.558;2023-09-08T03:47:31;8.52;;;7.60;;
18947;SDS011;9607;51.600;7.558;2023-09-08T03:49:58;8.27;;;7.38;;
18947;SDS011;9607;51.600;7.558;2023-09-08T03:52:25;8.90;;;8.00;;
18947;SDS011;9607;51.600;7.558;2023-09-08T03:54:56;7.78;;;7.05;;
18947;SDS011;9607;51.600;7.558;2023-09-08T03:57:22;13.48;;;11.85;;
18947;SDS011;9607;51.600;7.558;2023-09-08T03:59:51;15.82;;;12.15;;
18947;SDS011;9607;51.600;7.558;2023-09-08T04:02:18;11.95;;;10.48;;
18947;SDS011;9607;51.600;7.558;2023-09-08T04:04:44;9.93;;;8.93;;
18947;SDS011;9607;51.600;7.558;2023-09-08T04:07:11;8.43;;;7.63;;
18947;SDS011;9607;51.600;7.558;2023-09-08T04:09:38;7.88;;;7.18;;
18947;SDS011;9607;51.600;7.558;2023-09-08T04:12:05;7.32;;;6.63;;
18947;SDS011;9607;51.600;7.558;2023-09-08T04:14:34;7.00;;;6.30;;
18947;SDS011;9607;51.600;7.558;2023-09-08T04:17:03;11.70;;;9.90;;
18947;SDS011;9607;51.600;7.558;2023-09-08T04:19:29;21.08;;;14.65;;
18947;SDS011;9607;51.600;7.558;2023-09-08T04:21:56;19.50;;;15.40;;
18947;SDS011;9607;51.600;7.558;2023-09-08T04:24:23;18.58;;;16.02;;
18947;SDS011;9607;51.600;7.558;2023-09-08T04:26:50;15.45;;;13.60;;
18947;SDS011;9607;51.600;7.558;2023-09-08T04:29:18;11.98;;;10.77;;
18947;SDS011;9607;51.600;7.558;2023-09-08T04:31:45;15.70;;;14.00;;
18947;SDS011;9607;51.600;7.558;2023-09-08T04:34:13;15.50;;;13.90;;
18947;SDS011;9607;51.600;7.558;2023-09-08T04:36:40;13.10;;;11.68;;
18947;SDS011;9607;51.600;7.558;2023-09-08T04:39:07;9.98;;;9.07;;
18947;SDS011;9607;51.600;7.558;2023-09-08T04:41:36;10.15;;;9.07;;
18947;SDS011;9607;51.600;7.558;2023-09-08T04:44:03;11.30;;;9.93;;
18947;SDS011;9607;51.600;7.558;2023-09-08T04:46:30;9.27;;;8.38;;
18947;SDS011;9607;51.600;7.558;2023-09-08T04:48:57;9.80;;;8.45;;
18947;SDS011;9607;51.600;7.558;2023-09-08T04:51:25;7.90;;;7.10;;
18947;SDS011;9607;51.600;7.558;2023-09-08T04:53:53;8.48;;;7.68;;
18947;SDS011;9607;51.600;7.558;2023-09-08T04:56:20;13.18;;;10.20;;
18947;SDS011;9607;51.600;7.558;2023-09-08T04:58:47;13.60;;;12.20;;
18947;SDS011;9607;51.600;7.558;2023-09-08T05:01:14;11.15;;;10.02;;
18947;SDS011;9607;51.600;7.558;2023-09-08T05:03:41;9.93;;;8.85;;
18947;SDS011;9607;51.600;7.558;2023-09-08T05:06:07;9.00;;;8.15;;
18947;SDS011;9607;51.600;7.558;2023-09-08T05:08:36;8.55;;;7.75;;
18947;SDS011;9607;51.600;7.558;2023-09-08T05:11:02;7.57;;;6.88;;
18947;SDS011;9607;51.600;7.558;2023-09-08T05:13:30;7.65;;;6.95;;
18947;SDS011;9607;51.600;7.558;2023-09-08T05:15:57;8.13;;;7.32;;
18947;SDS011;9607;51.600;7.558;2023-09-08T05:18:35;8.82;;;8.02;;
18947;SDS011;9607;51.600;7.558;2023-09-08T05:21:02;9.32;;;8.13;;
18947;SDS011;9607;51.600;7.558;2023-09-08T05:23:32;8.13;;;7.32;;
18947;SDS011;9607;51.600;7.558;2023-09-08T05:26:01;7.05;;;6.38;;
18947;SDS011;9607;51.600;7.558;2023-09-08T05:28:28;7.32;;;6.63;;
18947;SDS011;9607;51.600;7.558;2023-09-08T05:30:55;7.25;;;6.57;;
18947;SDS011;9607;51.600;7.558;2023-09-08T05:33:22;7.07;;;6.47;;
18947;SDS011;9607;51.600;7.558;2023-09-08T05:35:48;8.13;;;7.35;;
18947;SDS011;9607;51.600;7.558;2023-09-08T05:38:15;11.20;;;10.10;;
18947;SDS011;9607;51.600;7.558;2023-09-08T05:40:42;10.43;;;9.43;;
18947;SDS011;9607;51.600;7.558;2023-09-08T05:43:10;8.77;;;7.88;;
18947;SDS011;9607;51.600;7.558;2023-09-08T05:45:37;7.40;;;6.70;;
18947;SDS011;9607;51.600;7.558;2023-09-08T05:48:04;7.55;;;6.85;;
18947;SDS011;9607;51.600;7.558;2023-09-08T05:50:31;7.30;;;6.60;;
18947;SDS011;9607;51.600;7.558;2023-09-08T05:52:58;6.80;;;6.18;;
18947;SDS011;9607;51.600;7.558;2023-09-08T05:55:24;6.60;;;6.00;;
18947;SDS011;9607;51.600;7.558;2023-09-08T05:57:51;5.85;;;5.35;;
18947;SDS011;9607;51.600;7.558;2023-09-08T06:00:20;6.50;;;5.93;;
18947;SDS011;9607;51.600;7.558;2023-09-08T06:02:47;5.25;;;4.75;;
18947;SDS011;9607;51.600;7.558;2023-09-08T06:05:14;4.95;;;4.53;;
18947;SDS011;9607;51.600;7.558;2023-09-08T06:07:41;5.97;;;5.47;;
18947;SDS011;9607;51.600;7.558;2023-09-08T06:10:08;13.95;;;12.00;;
18947;SDS011;9607;51.600;7.558;2023-09-08T06:12:35;18.85;;;16.60;;
18947;SDS011;9607;51.600;7.558;2023-09-08T06:15:02;14.90;;;13.40;;
18947;SDS011;9607;51.600;7.558;2023-09-08T06:17:31;17.08;;;15.30;;
18947;SDS011;9607;51.600;7.558;2023-09-08T06:19:58;20.35;;;16.52;;
18947;SDS011;9607;51.600;7.558;2023-09-08T06:22:25;16.25;;;14.52;;
18947;SDS011;9607;51.600;7.558;2023-09-08T06:24:52;15.40;;;13.68;;
18947;SDS011;9607;51.600;7.558;2023-09-08T06:27:19;14.13;;;12.73;;
18947;SDS011;9607;51.600;7.558;2023-09-08T06:29:46;11.18;;;9.70;;
18947;SDS011;9607;51.600;7.558;2023-09-08T06:32:13;10.60;;;8.05;;
18947;SDS011;9607;51.600;7.558;2023-09-08T06:34:41;10.13;;;9.13;;
18947;SDS011;9607;51.600;7.558;2023-09-08T06:37:08;9.70;;;8.70;;
18947;SDS011;9607;51.600;7.558;2023-09-08T06:39:35;9.45;;;8.45;;
18947;SDS011;9607;51.600;7.558;2023-09-08T06:42:02;7.22;;;6.53;;
18947;SDS011;9607;51.600;7.558;2023-09-08T06:44:30;6.57;;;5.97;;
18947;SDS011;9607;51.600;7.558;2023-09-08T06:46:57;5.93;;;5.43;;
18947;SDS011;9607;51.600;7.558;2023-09-08T06:49:24;5.53;;;5.03;;
18947;SDS011;9607;51.600;7.558;2023-09-08T06:51:52;6.25;;;5.75;;
18947;SDS011;9607;51.600;7.558;2023-09-08T06:54:19;5.78;;;5.28;;
18947;SDS011;9607;51.600;7.558;2023-09-08T06:56:45;5.22;;;4.82;;
18947;SDS011;9607;51.600;7.558;2023-09-08T06:59:12;6.43;;;5.82;;
18947;SDS011;9607;51.600;7.558;2023-09-08T07:01:39;10.15;;;9.20;;
18947;SDS011;9607;51.600;7.558;2023-09-08T07:04:06;10.18;;;9.15;;
18947;SDS011;9607;51.600;7.558;2023-09-08T07:06:32;7.05;;;6.45;;
18947;SDS011;9607;51.600;7.558;2023-09-08T07:09:03;8.85;;;7.80;;
18947;SDS011;9607;51.600;7.558;2023-09-08T07:11:31;6.60;;;6.00;;
18947;SDS011;9607;51.600;7.558;2023-09-08T07:13:57;5.22;;;4.82;;
18947;SDS011;9607;51.600;7.558;2023-09-08T07:16:24;6.15;;;5.55;;
18947;SDS011;9607;51.600;7.558;2023-09-08T07:18:51;4.82;;;4.43;;
18947;SDS011;9607;51.600;7.558;2023-09-08T07:21:18;4.72;;;4.32;;
18947;SDS011;9607;51.600;7.558;2023-09-08T07:23:44;4.88;;;4.45;;
18947;SDS011;9607;51.600;7.558;2023-09-08T07:26:12;4.15;;;3.75;;
18947;SDS011;9607;51.600;7.558;2023-09-08T07:28:40;5.72;;;5.20;;
18947;SDS011;9607;51.600;7.558;2023-09-08T07:31:07;4.57;;;4.28;;
18947;SDS011;9607;51.600;7.558;2023-09-08T07:33:34;3.97;;;3.67;;
18947;SDS011;9607;51.600;7.558;2023-09-08T07:36:04;4.35;;;3.95;;
18947;SDS011;9607;51.600;7.558;2023-09-08T07:38:31;3.88;;;3.55;;
18947;SDS011;9607;51.600;7.558;2023-09-08T07:40:58;3.97;;;3.67;;
18947;SDS011;9607;51.600;7.558;2023-09-08T07:43:27;3.45;;;3.13;;
18947;SDS011;9607;51.600;7.558;2023-09-08T07:45:54;4.22;;;3.05;;
18947;SDS011;9607;51.600;7.558;2023-09-08T07:48:21;3.03;;;2.83;;
18947;SDS011;9607;51.600;7.558;2023-09-08T07:50:48;3.20;;;2.90;;
18947;SDS011;9607;51.600;7.558;2023-09-08T07:53:15;3.30;;;3.00;;
18947;SDS011;9607;51.600;7.558;2023-09-08T07:55:42;3.35;;;3.05;;
18947;SDS011;9607;51.600;7.558;2023-09-08T07:58:08;3.35;;;3.05;;
18947;SDS011;9607;51.600;7.558;2023-09-08T08:00:37;3.25;;;2.95;;
18947;SDS011;9607;51.600;7.558;2023-09-08T08:03:04;3.40;;;3.10;;
18947;SDS011;9607;51.600;7.558;2023-09-08T08:05:31;3.38;;;3.08;;
18947;SDS011;9607;51.600;7.558;2023-09-08T08:07:58;3.05;;;2.80;;
18947;SDS011;9607;51.600;7.558;2023-09-08T08:10:25;3.80;;;2.90;;
18947;SDS011;9607;51.600;7.558;2023-09-08T08:12:52;3.00;;;2.80;;
18947;SDS011;9607;51.600;7.558;2023-09-08T08:15:18;2.60;;;2.40;;
18947;SDS011;9607;51.600;7.558;2023-09-08T08:17:48;2.83;;;2.63;;
18947;SDS011;9607;51.600;7.558;2023-09-08T08:20:15;2.85;;;2.63;;
18947;SDS011;9607;51.600;7.558;2023-09-08T08:22:43;3.00;;;2.28;;
18947;SDS011;9607;51.600;7.558;2023-09-08T08:25:10;2.47;;;2.28;;
18947;SDS011;9607;51.600;7.558;2023-09-08T08:27:37;2.90;;;2.70;;
18947;SDS011;9607;51.600;7.558;2023-09-08T08:30:05;2.60;;;2.40;;
18947;SDS011;9607;51.600;7.558;2023-09-08T08:32:33;2.45;;;2.25;;
18947;SDS011;9607;51.600;7.558;2023-09-08T08:35:01;2.38;;;2.28;;
18947;SDS011;9607;51.600;7.558;2023-09-08T08:37:31;2.63;;;2.42;;
18947;SDS011;9607;51.600;7.558;2023-09-08T08:39:57;2.90;;;2.70;;
18947;SDS011;9607;51.600;7.558;2023-09-08T08:42:30;2.67;;;2.47;;
18947;SDS011;9607;51.600;7.558;2023-09-08T08:44:58;3.15;;;2.85;;
18947;SDS011;9607;51.600;7.558;2023-09-08T08:47:26;2.75;;;2.55;;
18947;SDS011;9607;51.600;7.558;2023-09-08T08:49:55;2.78;;;2.58;;
18947;SDS011;9607;51.600;7.558;2023-09-08T08:52:24;3.63;;;2.75;;
18947;SDS011;9607;51.600;7.558;2023-09-08T08:54:52;4.25;;;3.35;;
18947;SDS011;9607;51.600;7.558;2023-09-08T08:57:19;3.97;;;3.45;;
18947;SDS011;9607;51.600;7.558;2023-09-08T08:59:47;3.53;;;3.00;;
18947;SDS011;9607;51.600;7.558;2023-09-08T09:02:16;3.50;;;3.05;;
18947;SDS011;9607;51.600;7.558;2023-09-08T09:04:45;3.65;;;3.30;;
18947;SDS011;9607;51.600;7.558;2023-09-08T09:07:12;4.13;;;3.35;;
18947;SDS011;9607;51.600;7.558;2023-09-08T09:09:41;3.15;;;2.92;;
18947;SDS011;9607;51.600;7.558;2023-09-08T09:12:08;4.07;;;2.90;;
18947;SDS011;9607;51.600;7.558;2023-09-08T09:14:35;3.50;;;2.90;;
18947;SDS011;9607;51.600;7.558;2023-09-08T09:17:02;3.05;;;2.60;;
18947;SDS011;9607;51.600;7.558;2023-09-08T09:19:30;3.03;;;2.78;;
18947;SDS011;9607;51.600;7.558;2023-09-08T09:21:58;3.20;;;2.83;;
18947;SDS011;9607;51.600;7.558;2023-09-08T09:24:29;3.08;;;2.88;;
18947;SDS011;9607;51.600;7.558;2023-09-08T09:26:59;3.15;;;2.85;;
18947;SDS011;9607;51.600;7.558;2023-09-08T09:29:26;2.90;;;2.70;;
18947;SDS011;9607;51.600;7.558;2023-09-08T09:31:55;2.95;;;2.75;;
18947;SDS011;9607;51.600;7.558;2023-09-08T09:34:22;2.65;;;2.45;;
18947;SDS011;9607;51.600;7.558;2023-09-08T09:36:50;3.75;;;3.00;;
18947;SDS011;9607;51.600;7.558;2023-09-08T09:39:17;2.97;;;2.78;;
18947;SDS011;9607;51.600;7.558;2023-09-08T09:41:45;2.95;;;2.75;;
18947;SDS011;9607;51.600;7.558;2023-09-08T09:44:13;3.25;;;2.95;;
18947;SDS011;9607;51.600;7.558;2023-09-08T09:46:43;3.45;;;3.15;;
18947;SDS011;9607;51.600;7.558;2023-09-08T09:49:10;3.67;;;3.22;;
18947;SDS011;9607;51.600;7.558;2023-09-08T09:51:39;3.42;;;3.03;;
18947;SDS011;9607;51.600;7.558;2023-09-08T09:54:08;3.35;;;3.05;;
18947;SDS011;9607;51.600;7.558;2023-09-08T09:56:36;3.20;;;2.90;;
18947;SDS011;9607;51.600;7.558;2023-09-08T09:59:04;4.78;;;2.80;;
18947;SDS011;9607;51.600;7.558;2023-09-08T10:01:33;3.17;;;2.88;;
18947;SDS011;9607;51.600;7.558;2023-09-08T10:04:01;2.78;;;2.50;;
18947;SDS011;9607;51.600;7.558;2023-09-08T10:06:33;2.47;;;2.28;;
18947;SDS011;9607;51.600;7.558;2023-09-08T10:09:01;2.83;;;2.63;;
18947;SDS011;9607;51.600;7.558;2023-09-08T10:11:32;2.78;;;2.58;;
18947;SDS011;9607;51.600;7.558;2023-09-08T10:14:04;3.92;;;2.53;;
18947;SDS011;9607;51.600;7.558;2023-09-08T10:16:38;3.25;;;2.92;;
18947;SDS011;9607;51.600;7.558;2023-09-08T10:19:07;6.30;;;2.70;;
18947;SDS011;9607;51.600;7.558;2023-09-08T10:21:36;3.30;;;3.00;;
18947;SDS011;9607;51.600;7.558;2023-09-08T10:24:09;3.13;;;2.75;;
18947;SDS011;9607;51.600;7.558;2023-09-08T10:26:42;3.88;;;3.38;;
18947;SDS011;9607;51.600;7.558;2023-09-08T10:29:11;5.00;;;3.25;;
18947;SDS011;9607;51.600;7.558;2023-09-08T10:31:40;4.88;;;3.05;;
18947;SDS011;9607;51.600;7.558;2023-09-08T10:34:08;3.65;;;3.30;;
18947;SDS011;9607;51.600;7.558;2023-09-08T10:36:35;3.30;;;3.00;;
18947;SDS011;9607;51.600;7.558;2023-09-08T10:39:27;3.30;;;3.00;;
18947;SDS011;9607;51.600;7.558;2023-09-08T10:44:55;2.83;;;2.50;;
18947;SDS011;9607;51.600;7.558;2023-09-08T10:47:24;2.80;;;2.60;;
18947;SDS011;9607;51.600;7.558;2023-09-08T10:49:53;3.67;;;2.90;;
18947;SDS011;9607;51.600;7.558;2023-09-08T10:52:25;3.45;;;2.83;;
18947;SDS011;9607;51.600;7.558;2023-09-08T10:54:52;2.63;;;2.40;;
18947;SDS011;9607;51.600;7.558;2023-09-08T10:57:20;3.15;;;2.85;;
18947;SDS011;9607;51.600;7.558;2023-09-08T10:59:50;3.00;;;2.80;;
18947;SDS011;9607;51.600;7.558;2023-09-08T11:02:36;5.32;;;2.90;;
18947;SDS011;9607;51.600;7.558;2023-09-08T11:05:04;3.50;;;3.20;;
18947;SDS011;9607;51.600;7.558;2023-09-08T11:07:35;3.45;;;2.72;;
18947;SDS011;9607;51.600;7.558;2023-09-08T11:10:02;5.18;;;2.90;;
18947;SDS011;9607;51.600;7.558;2023-09-08T11:12:30;3.33;;;3.03;;
18947;SDS011;9607;51.600;7.558;2023-09-08T11:14:57;2.78;;;2.58;;
18947;SDS011;9607;51.600;7.558;2023-09-08T11:17:26;4.07;;;2.90;;
18947;SDS011;9607;51.600;7.558;2023-09-08T11:19:54;3.40;;;2.58;;
18947;SDS011;9607;51.600;7.558;2023-09-08T11:22:22;2.80;;;2.60;;
18947;SDS011;9607;51.600;7.558;2023-09-08T11:24:50;5.03;;;2.95;;
18947;SDS011;9607;51.600;7.558;2023-09-08T11:27:18;3.35;;;3.03;;
18947;SDS011;9607;51.600;7.558;2023-09-08T11:29:47;3.15;;;2.90;;
18947;SDS011;9607;51.600;7.558;2023-09-08T11:32:13;4.78;;;3.20;;
18947;SDS011;9607;51.600;7.558;2023-09-08T11:34:40;3.75;;;3.33;;
18947;SDS011;9607;51.600;7.558;2023-09-08T11:37:09;3.38;;;3.13;;
18947;SDS011;9607;51.600;7.558;2023-09-08T11:39:38;3.28;;;2.97;;
18947;SDS011;9607;51.600;7.558;2023-09-08T11:42:06;2.45;;;2.25;;
18947;SDS011;9607;51.600;7.558;2023-09-08T11:44:33;2.80;;;2.60;;
18947;SDS011;9607;51.600;7.558;2023-09-08T11:47:01;2.50;;;2.30;;
18947;SDS011;9607;51.600;7.558;2023-09-08T11:49:33;3.65;;;3.08;;
18947;SDS011;9607;51.600;7.558;2023-09-08T11:52:00;2.83;;;2.60;;
18947;SDS011;9607;51.600;7.558;2023-09-08T11:54:29;2.83;;;2.60;;
18947;SDS011;9607;51.600;7.558;2023-09-08T11:56:57;2.70;;;2.50;;
18947;SDS011;9607;51.600;7.558;2023-09-08T11:59:25;2.60;;;2.40;;
18947;SDS011;9607;51.600;7.558;2023-09-08T12:01:53;3.05;;;2.75;;
18947;SDS011;9607;51.600;7.558;2023-09-08T12:04:21;2.45;;;2.25;;
18947;SDS011;9607;51.600;7.558;2023-09-08T12:06:48;3.20;;;3.00;;
18947;SDS011;9607;51.600;7.558;2023-09-08T12:09:16;3.20;;;2.83;;
18947;SDS011;9607;51.600;7.558;2023-09-08T12:11:44;3.33;;;2.85;;
18947;SDS011;9607;51.600;7.558;2023-09-08T12:14:11;4.07;;;2.92;;
18947;SDS011;9607;51.600;7.558;2023-09-08T12:16:39;2.92;;;2.72;;
18947;SDS011;9607;51.600;7.558;2023-09-08T12:19:06;5.32;;;2.85;;
18947;SDS011;9607;51.600;7.558;2023-09-08T12:21:35;3.00;;;2.80;;
18947;SDS011;9607;51.600;7.558;2023-09-08T12:24:19;3.03;;;2.83;;
18947;SDS011;9607;51.600;7.558;2023-09-08T12:26:50;2.75;;;2.55;;
18947;SDS011;9607;51.600;7.558;2023-09-08T12:29:16;3.15;;;2.65;;
18947;SDS011;9607;51.600;7.558;2023-09-08T12:31:43;2.55;;;2.30;;
18947;SDS011;9607;51.600;7.558;2023-09-08T12:34:10;3.25;;;2.53;;
18947;SDS011;9607;51.600;7.558;2023-09-08T12:36:38;2.85;;;2.55;;
18947;SDS011;9607;51.600;7.558;2023-09-08T12:39:10;2.80;;;2.60;;
18947;SDS011;9607;51.600;7.558;2023-09-08T12:41:36;2.60;;;2.40;;
18947;SDS011;9607;51.600;7.558;2023-09-08T12:44:05;2.50;;;2.30;;
18947;SDS011;9607;51.600;7.558;2023-09-08T12:46:32;3.03;;;2.70;;
18947;SDS011;9607;51.600;7.558;2023-09-08T12:49:00;3.55;;;2.88;;
18947;SDS011;9607;51.600;7.558;2023-09-08T12:51:27;3.20;;;2.55;;
18947;SDS011;9607;51.600;7.558;2023-09-08T12:53:54;3.22;;;2.97;;
18947;SDS011;9607;51.600;7.558;2023-09-08T12:56:20;2.75;;;2.50;;
18947;SDS011;9607;51.600;7.558;2023-09-08T12:58:47;5.28;;;2.53;;
18947;SDS011;9607;51.600;7.558;2023-09-08T13:01:16;2.60;;;2.40;;
18947;SDS011;9607;51.600;7.558;2023-09-08T13:03:42;2.42;;;2.22;;
18947;SDS011;9607;51.600;7.558;2023-09-08T13:06:09;2.83;;;2.63;;
18947;SDS011;9607;51.600;7.558;2023-09-08T13:08:37;6.40;;;3.15;;
18947;SDS011;9607;51.600;7.558;2023-09-08T13:11:03;3.00;;;2.70;;
18947;SDS011;9607;51.600;7.558;2023-09-08T13:13:30;2.90;;;2.70;;
18947;SDS011;9607;51.600;7.558;2023-09-08T13:15:57;2.53;;;2.33;;
18947;SDS011;9607;51.600;7.558;2023-09-08T13:18:25;2.40;;;2.20;;
18947;SDS011;9607;51.600;7.558;2023-09-08T13:20:51;2.42;;;2.22;;
18947;SDS011;9607;51.600;7.558;2023-09-08T13:23:18;3.17;;;2.75;;
18947;SDS011;9607;51.600;7.558;2023-09-08T13:25:47;2.72;;;2.47;;
18947;SDS011;9607;51.600;7.558;2023-09-08T13:28:13;2.28;;;2.08;;
18947;SDS011;9607;51.600;7.558;2023-09-08T13:30:40;2.45;;;2.25;;
18947;SDS011;9607;51.600;7.558;2023-09-08T13:33:07;3.00;;;2.70;;
18947;SDS011;9607;51.600;7.558;2023-09-08T13:35:35;3.20;;;2.90;;
18947;SDS011;9607;51.600;7.558;2023-09-08T13:38:04;3.20;;;2.63;;
18947;SDS011;9607;51.600;7.558;2023-09-08T13:40:31;3.00;;;2.80;;
18947;SDS011;9607;51.600;7.558;2023-09-08T13:42:58;2.80;;;2.40;;
18947;SDS011;9607;51.600;7.558;2023-09-08T13:45:25;2.60;;;2.38;;
18947;SDS011;9607;51.600;7.558;2023-09-08T13:47:52;2.35;;;2.15;;
18947;SDS011;9607;51.600;7.558;2023-09-08T13:50:19;3.17;;;2.75;;
18947;SDS011;9607;51.600;7.558;2023-09-08T13:52:47;2.53;;;2.33;;
18947;SDS011;9607;51.600;7.558;2023-09-08T13:55:13;3.50;;;3.10;;
18947;SDS011;9607;51.600;7.558;2023-09-08T13:57:40;3.20;;;2.67;;
18947;SDS011;9607;51.600;7.558;2023-09-08T14:00:07;4.00;;;2.92;;
18947;SDS011;9607;51.600;7.558;2023-09-08T14:02:36;3.25;;;2.97;;
18947;SDS011;9607;51.600;7.558;2023-09-08T14:05:03;2.63;;;2.42;;
18947;SDS011;9607;51.600;7.558;2023-09-08T14:07:31;2.88;;;2.38;;
18947;SDS011;9607;51.600;7.558;2023-09-08T14:10:00;3.20;;;2.90;;
18947;SDS011;9607;51.600;7.558;2023-09-08T14:12:32;2.53;;;2.33;;
18947;SDS011;9607;51.600;7.558;2023-09-08T14:14:59;2.70;;;2.50;;
18947;SDS011;9607;51.600;7.558;2023-09-08T14:17:26;3.53;;;2.95;;
18947;SDS011;9607;51.600;7.558;2023-09-08T14:19:53;3.35;;;2.42;;
18947;SDS011;9607;51.600;7.558;2023-09-08T14:22:20;2.60;;;2.40;;
18947;SDS011;9607;51.600;7.558;2023-09-08T14:24:46;2.65;;;2.45;;
18947;SDS011;9607;51.600;7.558;2023-09-08T14:27:14;3.30;;;2.53;;
18947;SDS011;9607;51.600;7.558;2023-09-08T14:29:41;2.85;;;2.63;;
18947;SDS011;9607;51.600;7.558;2023-09-08T14:32:08;5.20;;;2.85;;
18947;SDS011;9607;51.600;7.558;2023-09-08T14:34:35;4.38;;;2.80;;
18947;SDS011;9607;51.600;7.558;2023-09-08T14:37:02;3.03;;;2.72;;
18947;SDS011;9607;51.600;7.558;2023-09-08T14:39:29;3.00;;;2.80;;
18947;SDS011;9607;51.600;7.558;2023-09-08T14:41:56;3.63;;;2.85;;
18947;SDS011;9607;51.600;7.558;2023-09-08T14:44:24;2.88;;;2.50;;
18947;SDS011;9607;51.600;7.558;2023-09-08T14:46:51;2.92;;;2.72;;
18947;SDS011;9607;51.600;7.558;2023-09-08T14:49:18;3.08;;;2.78;;
18947;SDS011;9607;51.600;7.558;2023-09-08T14:51:45;3.45;;;3.15;;
18947;SDS011;9607;51.600;7.558;2023-09-08T14:54:12;2.90;;;2.60;;
18947;SDS011;9607;51.600;7.558;2023-09-08T14:56:39;3.13;;;2.85;;
18947;SDS011;9607;51.600;7.558;2023-09-08T14:59:05;3.00;;;2.80;;
18947;SDS011;9607;51.600;7.558;2023-09-08T15:01:35;4.03;;;2.80;;
18947;SDS011;9607;51.600;7.558;2023-09-08T15:04:03;3.65;;;3.10;;
18947;SDS011;9607;51.600;7.558;2023-09-08T15:06:30;3.30;;;3.00;;
18947;SDS011;9607;51.600;7.558;2023-09-08T15:08:57;4.90;;;3.05;;